Halifax, United Kingdom
Current Conditions -  °F | °C
As of 2:20 PM on Thursday 29 Jan 2015 (Local Time) from EGNM Reporting Station
Snow Showers Snow Showers  
Wind Chill: 18°   Ceiling: Unl
Heat Index: 30°   Visibility: 6mi
Dew Point: 30°   Wind: 20mph
Humidity: 100%   Direction: 280°W
Pressure: 28.76"   Gusts: NA
Location:  53.72°N, 1.86°W
Report Text: EGNM 291420Z 28017KT 260V320 9999 -SHSN SCT010CB M01/M01 Q0974 R32/590595
Loading
Personal Weather Stations






























Interactive Weather Map New forecast layout! Learn more

10-Day Weather Forecast

Advertisements
Track Severe Weather on mobile